sensor_id;sensor_type;location;lat;lon;timestamp;P1;durP1;ratioP1;P2;durP2;ratioP2
54388;SDS011;40975;50.390;8.640;2023-06-10T00:00:45;6.80;;;5.97;;
54388;SDS011;40975;50.390;8.640;2023-06-10T00:03:11;7.72;;;6.85;;
54388;SDS011;40975;50.390;8.640;2023-06-10T00:05:38;10.05;;;7.10;;
54388;SDS011;40975;50.390;8.640;2023-06-10T00:08:04;6.80;;;6.10;;
54388;SDS011;40975;50.390;8.640;2023-06-10T00:10:32;10.07;;;7.63;;
54388;SDS011;40975;50.390;8.640;2023-06-10T00:12:59;8.00;;;6.35;;
54388;SDS011;40975;50.390;8.640;2023-06-10T00:15:24;9.48;;;6.72;;
54388;SDS011;40975;50.390;8.640;2023-06-10T00:17:50;12.57;;;6.22;;
54388;SDS011;40975;50.390;8.640;2023-06-10T00:20:17;7.47;;;5.85;;
54388;SDS011;40975;50.390;8.640;2023-06-10T00:22:43;8.68;;;6.68;;
54388;SDS011;40975;50.390;8.640;2023-06-10T00:25:10;8.65;;;6.10;;
54388;SDS011;40975;50.390;8.640;2023-06-10T00:27:35;8.52;;;6.20;;
54388;SDS011;40975;50.390;8.640;2023-06-10T00:30:02;9.05;;;6.72;;
54388;SDS011;40975;50.390;8.640;2023-06-10T00:32:30;9.93;;;6.88;;
54388;SDS011;40975;50.390;8.640;2023-06-10T00:34:56;7.30;;;6.20;;
54388;SDS011;40975;50.390;8.640;2023-06-10T00:37:21;9.05;;;6.55;;
54388;SDS011;40975;50.390;8.640;2023-06-10T00:39:48;8.80;;;6.78;;
54388;SDS011;40975;50.390;8.640;2023-06-10T00:42:13;8.32;;;6.65;;
54388;SDS011;40975;50.390;8.640;2023-06-10T00:44:38;7.82;;;6.82;;
54388;SDS011;40975;50.390;8.640;2023-06-10T00:47:04;9.70;;;6.68;;
54388;SDS011;40975;50.390;8.640;2023-06-10T00:49:30;7.82;;;6.15;;
54388;SDS011;40975;50.390;8.640;2023-06-10T00:51:56;7.57;;;6.15;;
54388;SDS011;40975;50.390;8.640;2023-06-10T00:54:21;8.27;;;6.78;;
54388;SDS011;40975;50.390;8.640;2023-06-10T00:56:47;10.18;;;6.63;;
54388;SDS011;40975;50.390;8.640;2023-06-10T00:59:14;8.77;;;6.88;;
54388;SDS011;40975;50.390;8.640;2023-06-10T01:01:40;8.30;;;6.63;;
54388;SDS011;40975;50.390;8.640;2023-06-10T01:04:08;10.23;;;6.97;;
54388;SDS011;40975;50.390;8.640;2023-06-10T01:06:48;7.80;;;7.00;;
54388;SDS011;40975;50.390;8.640;2023-06-10T01:09:40;9.10;;;7.00;;
54388;SDS011;40975;50.390;8.640;2023-06-10T01:12:23;10.18;;;7.93;;
54388;SDS011;40975;50.390;8.640;2023-06-10T01:14:56;8.55;;;6.40;;
54388;SDS011;40975;50.390;8.640;2023-06-10T01:17:22;10.60;;;6.63;;
54388;SDS011;40975;50.390;8.640;2023-06-10T01:19:54;8.40;;;6.72;;
54388;SDS011;40975;50.390;8.640;2023-06-10T01:22:22;8.90;;;6.78;;
54388;SDS011;40975;50.390;8.640;2023-06-10T01:24:51;8.60;;;6.80;;
54388;SDS011;40975;50.390;8.640;2023-06-10T01:27:18;9.23;;;6.35;;
54388;SDS011;40975;50.390;8.640;2023-06-10T01:29:49;8.98;;;6.53;;
54388;SDS011;40975;50.390;8.640;2023-06-10T01:32:26;10.30;;;6.72;;
54388;SDS011;40975;50.390;8.640;2023-06-10T01:34:57;7.45;;;6.05;;
54388;SDS011;40975;50.390;8.640;2023-06-10T01:37:24;7.07;;;5.80;;
54388;SDS011;40975;50.390;8.640;2023-06-10T01:39:51;9.52;;;6.00;;
54388;SDS011;40975;50.390;8.640;2023-06-10T01:42:19;8.48;;;6.40;;
54388;SDS011;40975;50.390;8.640;2023-06-10T01:44:45;8.77;;;6.13;;
54388;SDS011;40975;50.390;8.640;2023-06-10T01:47:11;8.48;;;5.80;;
54388;SDS011;40975;50.390;8.640;2023-06-10T01:49:36;9.45;;;6.22;;
54388;SDS011;40975;50.390;8.640;2023-06-10T01:52:01;9.18;;;6.43;;
54388;SDS011;40975;50.390;8.640;2023-06-10T01:54:27;7.35;;;6.25;;
54388;SDS011;40975;50.390;8.640;2023-06-10T01:56:52;7.78;;;6.18;;
54388;SDS011;40975;50.390;8.640;2023-06-10T01:59:18;10.43;;;7.07;;
54388;SDS011;40975;50.390;8.640;2023-06-10T02:01:43;9.13;;;6.35;;
54388;SDS011;40975;50.390;8.640;2023-06-10T02:04:09;7.65;;;6.05;;
54388;SDS011;40975;50.390;8.640;2023-06-10T02:06:34;7.95;;;6.53;;
54388;SDS011;40975;50.390;8.640;2023-06-10T02:09:02;8.82;;;6.20;;
54388;SDS011;40975;50.390;8.640;2023-06-10T02:11:28;8.98;;;6.22;;
54388;SDS011;40975;50.390;8.640;2023-06-10T02:13:53;11.18;;;6.10;;
54388;SDS011;40975;50.390;8.640;2023-06-10T02:16:19;7.43;;;6.60;;
54388;SDS011;40975;50.390;8.640;2023-06-10T02:18:46;10.02;;;6.47;;
54388;SDS011;40975;50.390;8.640;2023-06-10T02:21:12;8.75;;;6.03;;
54388;SDS011;40975;50.390;8.640;2023-06-10T02:23:37;8.98;;;6.18;;
54388;SDS011;40975;50.390;8.640;2023-06-10T02:26:03;6.35;;;5.68;;
54388;SDS011;40975;50.390;8.640;2023-06-10T02:28:28;7.38;;;6.00;;
54388;SDS011;40975;50.390;8.640;2023-06-10T02:30:54;7.15;;;5.68;;
54388;SDS011;40975;50.390;8.640;2023-06-10T02:33:20;9.35;;;6.30;;
54388;SDS011;40975;50.390;8.640;2023-06-10T02:35:45;7.30;;;5.70;;
54388;SDS011;40975;50.390;8.640;2023-06-10T02:38:11;10.95;;;6.10;;
54388;SDS011;40975;50.390;8.640;2023-06-10T02:40:36;8.27;;;6.25;;
54388;SDS011;40975;50.390;8.640;2023-06-10T02:43:02;7.20;;;6.10;;
54388;SDS011;40975;50.390;8.640;2023-06-10T02:45:27;7.07;;;5.60;;
54388;SDS011;40975;50.390;8.640;2023-06-10T02:47:53;5.90;;;5.25;;
54388;SDS011;40975;50.390;8.640;2023-06-10T02:50:20;8.32;;;6.05;;
54388;SDS011;40975;50.390;8.640;2023-06-10T02:52:56;6.50;;;5.22;;
54388;SDS011;40975;50.390;8.640;2023-06-10T02:55:21;9.73;;;5.45;;
54388;SDS011;40975;50.390;8.640;2023-06-10T02:57:52;9.82;;;6.68;;
54388;SDS011;40975;50.390;8.640;2023-06-10T03:00:19;8.00;;;5.22;;
54388;SDS011;40975;50.390;8.640;2023-06-10T03:02:46;9.35;;;6.18;;
54388;SDS011;40975;50.390;8.640;2023-06-10T03:05:12;6.57;;;5.57;;
54388;SDS011;40975;50.390;8.640;2023-06-10T03:07:41;6.53;;;5.80;;
54388;SDS011;40975;50.390;8.640;2023-06-10T03:10:07;11.60;;;5.82;;
54388;SDS011;40975;50.390;8.640;2023-06-10T03:12:34;6.68;;;5.35;;
54388;SDS011;40975;50.390;8.640;2023-06-10T03:14:59;7.57;;;5.30;;
54388;SDS011;40975;50.390;8.640;2023-06-10T03:17:25;9.43;;;5.97;;
54388;SDS011;40975;50.390;8.640;2023-06-10T03:19:51;8.20;;;5.55;;
54388;SDS011;40975;50.390;8.640;2023-06-10T03:22:16;8.65;;;5.63;;
54388;SDS011;40975;50.390;8.640;2023-06-10T03:24:49;7.28;;;5.40;;
54388;SDS011;40975;50.390;8.640;2023-06-10T03:27:15;9.07;;;5.20;;
54388;SDS011;40975;50.390;8.640;2023-06-10T03:29:44;9.77;;;5.45;;
54388;SDS011;40975;50.390;8.640;2023-06-10T03:32:09;7.45;;;5.60;;
54388;SDS011;40975;50.390;8.640;2023-06-10T03:34:36;5.88;;;5.18;;
54388;SDS011;40975;50.390;8.640;2023-06-10T03:37:02;9.05;;;5.07;;
54388;SDS011;40975;50.390;8.640;2023-06-10T03:39:28;7.78;;;5.00;;
54388;SDS011;40975;50.390;8.640;2023-06-10T03:41:56;6.65;;;4.93;;
54388;SDS011;40975;50.390;8.640;2023-06-10T03:44:24;6.60;;;5.47;;
54388;SDS011;40975;50.390;8.640;2023-06-10T03:46:50;10.15;;;5.63;;
54388;SDS011;40975;50.390;8.640;2023-06-10T03:49:17;6.28;;;5.25;;
54388;SDS011;40975;50.390;8.640;2023-06-10T03:51:42;5.97;;;4.97;;
54388;SDS011;40975;50.390;8.640;2023-06-10T03:54:08;8.15;;;5.30;;
54388;SDS011;40975;50.390;8.640;2023-06-10T03:56:34;7.05;;;5.20;;
54388;SDS011;40975;50.390;8.640;2023-06-10T03:59:00;6.20;;;5.53;;
54388;SDS011;40975;50.390;8.640;2023-06-10T04:01:26;7.80;;;5.18;;
54388;SDS011;40975;50.390;8.640;2023-06-10T04:03:52;9.00;;;5.47;;
54388;SDS011;40975;50.390;8.640;2023-06-10T04:06:19;5.95;;;5.35;;
54388;SDS011;40975;50.390;8.640;2023-06-10T04:08:47;8.00;;;5.35;;
54388;SDS011;40975;50.390;8.640;2023-06-10T04:11:12;6.90;;;5.05;;
54388;SDS011;40975;50.390;8.640;2023-06-10T04:13:38;6.75;;;5.10;;
54388;SDS011;40975;50.390;8.640;2023-06-10T04:16:03;7.80;;;5.72;;
54388;SDS011;40975;50.390;8.640;2023-06-10T04:18:29;6.82;;;5.30;;
54388;SDS011;40975;50.390;8.640;2023-06-10T04:20:58;7.35;;;5.40;;
54388;SDS011;40975;50.390;8.640;2023-06-10T04:23:23;5.75;;;4.72;;
54388;SDS011;40975;50.390;8.640;2023-06-10T04:25:50;7.93;;;5.43;;
54388;SDS011;40975;50.390;8.640;2023-06-10T04:28:15;7.03;;;5.35;;
54388;SDS011;40975;50.390;8.640;2023-06-10T04:30:41;7.85;;;5.40;;
54388;SDS011;40975;50.390;8.640;2023-06-10T04:33:07;7.57;;;5.05;;
54388;SDS011;40975;50.390;8.640;2023-06-10T04:35:34;8.02;;;5.55;;
54388;SDS011;40975;50.390;8.640;2023-06-10T04:38:00;8.10;;;5.47;;
54388;SDS011;40975;50.390;8.640;2023-06-10T04:40:28;7.60;;;5.25;;
54388;SDS011;40975;50.390;8.640;2023-06-10T04:42:56;7.95;;;5.18;;
54388;SDS011;40975;50.390;8.640;2023-06-10T04:45:22;6.35;;;4.82;;
54388;SDS011;40975;50.390;8.640;2023-06-10T04:47:48;6.78;;;5.43;;
54388;SDS011;40975;50.390;8.640;2023-06-10T04:50:13;6.43;;;5.30;;
54388;SDS011;40975;50.390;8.640;2023-06-10T04:52:38;6.18;;;4.80;;
54388;SDS011;40975;50.390;8.640;2023-06-10T04:55:06;9.65;;;5.60;;
54388;SDS011;40975;50.390;8.640;2023-06-10T04:57:32;7.03;;;5.13;;
54388;SDS011;40975;50.390;8.640;2023-06-10T04:59:57;6.68;;;4.65;;
54388;SDS011;40975;50.390;8.640;2023-06-10T05:02:23;5.25;;;4.45;;
54388;SDS011;40975;50.390;8.640;2023-06-10T05:04:48;6.32;;;4.90;;
54388;SDS011;40975;50.390;8.640;2023-06-10T05:07:13;6.88;;;5.18;;
54388;SDS011;40975;50.390;8.640;2023-06-10T05:09:38;9.73;;;5.95;;
54388;SDS011;40975;50.390;8.640;2023-06-10T05:12:04;6.03;;;5.20;;
54388;SDS011;40975;50.390;8.640;2023-06-10T05:14:30;7.07;;;5.28;;
54388;SDS011;40975;50.390;8.640;2023-06-10T05:16:56;7.30;;;5.15;;
54388;SDS011;40975;50.390;8.640;2023-06-10T05:19:22;7.68;;;4.85;;
54388;SDS011;40975;50.390;8.640;2023-06-10T05:21:47;5.45;;;4.43;;
54388;SDS011;40975;50.390;8.640;2023-06-10T05:24:13;4.75;;;4.25;;
54388;SDS011;40975;50.390;8.640;2023-06-10T05:26:38;6.70;;;4.53;;
54388;SDS011;40975;50.390;8.640;2023-06-10T05:29:04;5.82;;;4.13;;
54388;SDS011;40975;50.390;8.640;2023-06-10T05:31:30;9.88;;;5.65;;
54388;SDS011;40975;50.390;8.640;2023-06-10T05:33:55;6.22;;;4.15;;
54388;SDS011;40975;50.390;8.640;2023-06-10T05:36:21;6.20;;;3.95;;
54388;SDS011;40975;50.390;8.640;2023-06-10T05:38:46;5.80;;;4.35;;
54388;SDS011;40975;50.390;8.640;2023-06-10T05:41:12;4.60;;;3.88;;
54388;SDS011;40975;50.390;8.640;2023-06-10T05:43:37;5.00;;;4.22;;
54388;SDS011;40975;50.390;8.640;2023-06-10T05:46:02;6.38;;;4.88;;
54388;SDS011;40975;50.390;8.640;2023-06-10T05:48:28;8.95;;;4.45;;
54388;SDS011;40975;50.390;8.640;2023-06-10T05:50:53;6.07;;;4.50;;
54388;SDS011;40975;50.390;8.640;2023-06-10T05:53:18;5.68;;;4.15;;
54388;SDS011;40975;50.390;8.640;2023-06-10T05:55:44;5.43;;;4.55;;
54388;SDS011;40975;50.390;8.640;2023-06-10T05:58:10;4.32;;;3.65;;
54388;SDS011;40975;50.390;8.640;2023-06-10T06:00:38;4.47;;;4.07;;
54388;SDS011;40975;50.390;8.640;2023-06-10T06:03:05;6.70;;;4.00;;
54388;SDS011;40975;50.390;8.640;2023-06-10T06:05:34;7.55;;;4.20;;
54388;SDS011;40975;50.390;8.640;2023-06-10T06:08:06;6.55;;;4.60;;
54388;SDS011;40975;50.390;8.640;2023-06-10T06:10:32;5.18;;;3.72;;
54388;SDS011;40975;50.390;8.640;2023-06-10T06:12:58;4.10;;;3.72;;
54388;SDS011;40975;50.390;8.640;2023-06-10T06:15:23;4.85;;;4.28;;
54388;SDS011;40975;50.390;8.640;2023-06-10T06:17:49;4.15;;;3.75;;
54388;SDS011;40975;50.390;8.640;2023-06-10T06:20:15;4.32;;;3.85;;
54388;SDS011;40975;50.390;8.640;2023-06-10T06:22:41;5.25;;;4.32;;
54388;SDS011;40975;50.390;8.640;2023-06-10T06:25:07;4.32;;;3.88;;
54388;SDS011;40975;50.390;8.640;2023-06-10T06:27:32;7.28;;;4.47;;
54388;SDS011;40975;50.390;8.640;2023-06-10T06:29:57;6.53;;;3.85;;
54388;SDS011;40975;50.390;8.640;2023-06-10T06:32:23;4.50;;;4.10;;
54388;SDS011;40975;50.390;8.640;2023-06-10T06:34:52;7.97;;;4.40;;
54388;SDS011;40975;50.390;8.640;2023-06-10T06:37:21;4.47;;;4.07;;
54388;SDS011;40975;50.390;8.640;2023-06-10T06:39:47;5.43;;;4.03;;
54388;SDS011;40975;50.390;8.640;2023-06-10T06:42:13;4.70;;;3.88;;
54388;SDS011;40975;50.390;8.640;2023-06-10T06:44:53;4.70;;;4.25;;
54388;SDS011;40975;50.390;8.640;2023-06-10T06:47:18;4.75;;;4.18;;
54388;SDS011;40975;50.390;8.640;2023-06-10T06:49:47;7.03;;;4.38;;
54388;SDS011;40975;50.390;8.640;2023-06-10T06:52:13;4.85;;;4.35;;
54388;SDS011;40975;50.390;8.640;2023-06-10T06:54:39;5.22;;;4.40;;
54388;SDS011;40975;50.390;8.640;2023-06-10T06:57:05;5.57;;;4.43;;
54388;SDS011;40975;50.390;8.640;2023-06-10T06:59:30;4.78;;;3.95;;
54388;SDS011;40975;50.390;8.640;2023-06-10T07:01:56;6.68;;;4.20;;
54388;SDS011;40975;50.390;8.640;2023-06-10T07:04:21;6.45;;;4.53;;
54388;SDS011;40975;50.390;8.640;2023-06-10T07:06:47;5.57;;;4.40;;
54388;SDS011;40975;50.390;8.640;2023-06-10T07:09:13;4.88;;;4.22;;
54388;SDS011;40975;50.390;8.640;2023-06-10T07:11:38;4.78;;;4.30;;
54388;SDS011;40975;50.390;8.640;2023-06-10T07:14:04;5.43;;;4.00;;
54388;SDS011;40975;50.390;8.640;2023-06-10T07:16:29;4.13;;;3.70;;
54388;SDS011;40975;50.390;8.640;2023-06-10T07:18:54;5.10;;;4.20;;
54388;SDS011;40975;50.390;8.640;2023-06-10T07:21:20;5.68;;;4.28;;
54388;SDS011;40975;50.390;8.640;2023-06-10T07:23:45;4.38;;;3.97;;
54388;SDS011;40975;50.390;8.640;2023-06-10T07:26:11;8.38;;;4.00;;
54388;SDS011;40975;50.390;8.640;2023-06-10T07:28:38;5.40;;;4.22;;
54388;SDS011;40975;50.390;8.640;2023-06-10T07:31:04;5.07;;;4.30;;
54388;SDS011;40975;50.390;8.640;2023-06-10T07:33:29;7.43;;;4.53;;
54388;SDS011;40975;50.390;8.640;2023-06-10T07:35:55;7.30;;;4.07;;
54388;SDS011;40975;50.390;8.640;2023-06-10T07:38:20;5.53;;;3.92;;
54388;SDS011;40975;50.390;8.640;2023-06-10T07:40:45;6.05;;;4.20;;
54388;SDS011;40975;50.390;8.640;2023-06-10T07:43:11;4.70;;;3.80;;
54388;SDS011;40975;50.390;8.640;2023-06-10T07:45:36;4.57;;;3.85;;
54388;SDS011;40975;50.390;8.640;2023-06-10T07:48:02;4.38;;;3.97;;
54388;SDS011;40975;50.390;8.640;2023-06-10T07:50:27;4.20;;;3.63;;
54388;SDS011;40975;50.390;8.640;2023-06-10T07:52:52;4.40;;;3.95;;
54388;SDS011;40975;50.390;8.640;2023-06-10T07:55:17;5.53;;;3.92;;
54388;SDS011;40975;50.390;8.640;2023-06-10T07:57:43;7.22;;;4.45;;
54388;SDS011;40975;50.390;8.640;2023-06-10T08:00:08;4.95;;;4.10;;
54388;SDS011;40975;50.390;8.640;2023-06-10T08:02:39;4.38;;;3.90;;
54388;SDS011;40975;50.390;8.640;2023-06-10T08:05:05;5.32;;;4.18;;
54388;SDS011;40975;50.390;8.640;2023-06-10T08:07:30;4.72;;;4.28;;
54388;SDS011;40975;50.390;8.640;2023-06-10T08:09:56;3.97;;;3.67;;
54388;SDS011;40975;50.390;8.640;2023-06-10T08:12:22;4.05;;;3.70;;
54388;SDS011;40975;50.390;8.640;2023-06-10T08:14:47;6.05;;;4.10;;
54388;SDS011;40975;50.390;8.640;2023-06-10T08:17:12;5.10;;;3.88;;
54388;SDS011;40975;50.390;8.640;2023-06-10T08:19:38;4.18;;;3.88;;
54388;SDS011;40975;50.390;8.640;2023-06-10T08:22:03;6.20;;;4.55;;
54388;SDS011;40975;50.390;8.640;2023-06-10T08:24:29;6.03;;;3.88;;
54388;SDS011;40975;50.390;8.640;2023-06-10T08:26:54;3.95;;;3.65;;
54388;SDS011;40975;50.390;8.640;2023-06-10T08:29:21;5.53;;;4.22;;
54388;SDS011;40975;50.390;8.640;2023-06-10T08:31:46;4.95;;;3.90;;
54388;SDS011;40975;50.390;8.640;2023-06-10T08:34:12;5.63;;;3.67;;
54388;SDS011;40975;50.390;8.640;2023-06-10T08:36:37;7.72;;;3.55;;
54388;SDS011;40975;50.390;8.640;2023-06-10T08:39:02;4.55;;;4.15;;
54388;SDS011;40975;50.390;8.640;2023-06-10T08:41:28;5.10;;;3.60;;
54388;SDS011;40975;50.390;8.640;2023-06-10T08:46:49;5.60;;;3.35;;
54388;SDS011;40975;50.390;8.640;2023-06-10T08:49:17;4.10;;;3.70;;
54388;SDS011;40975;50.390;8.640;2023-06-10T08:51:50;4.10;;;3.45;;
54388;SDS011;40975;50.390;8.640;2023-06-10T08:54:17;4.18;;;3.65;;
54388;SDS011;40975;50.390;8.640;2023-06-10T08:56:48;3.90;;;3.60;;
54388;SDS011;40975;50.390;8.640;2023-06-10T08:59:15;4.22;;;3.83;;
54388;SDS011;40975;50.390;8.640;2023-06-10T09:01:41;4.40;;;3.97;;
54388;SDS011;40975;50.390;8.640;2023-06-10T09:04:08;5.18;;;4.03;;
54388;SDS011;40975;50.390;8.640;2023-06-10T09:06:34;3.80;;;3.50;;
54388;SDS011;40975;50.390;8.640;2023-06-10T09:09:01;3.50;;;3.20;;
54388;SDS011;40975;50.390;8.640;2023-06-10T09:11:27;5.03;;;3.60;;
54388;SDS011;40975;50.390;8.640;2023-06-10T09:13:53;4.85;;;3.60;;
54388;SDS011;40975;50.390;8.640;2023-06-10T09:16:18;3.97;;;3.60;;
54388;SDS011;40975;50.390;8.640;2023-06-10T09:18:44;4.82;;;3.75;;
54388;SDS011;40975;50.390;8.640;2023-06-10T09:21:09;4.47;;;3.75;;
54388;SDS011;40975;50.390;8.640;2023-06-10T09:23:35;4.20;;;3.72;;
54388;SDS011;40975;50.390;8.640;2023-06-10T09:26:01;4.38;;;3.60;;
54388;SDS011;40975;50.390;8.640;2023-06-10T09:28:28;4.20;;;3.80;;
54388;SDS011;40975;50.390;8.640;2023-06-10T09:31:03;5.05;;;3.55;;
54388;SDS011;40975;50.390;8.640;2023-06-10T09:33:30;3.90;;;3.60;;
54388;SDS011;40975;50.390;8.640;2023-06-10T09:35:56;4.15;;;3.75;;
54388;SDS011;40975;50.390;8.640;2023-06-10T09:38:28;4.18;;;3.78;;
54388;SDS011;40975;50.390;8.640;2023-06-10T09:40:55;4.55;;;3.42;;
54388;SDS011;40975;50.390;8.640;2023-06-10T09:43:20;4.28;;;3.80;;
54388;SDS011;40975;50.390;8.640;2023-06-10T09:45:52;3.97;;;3.67;;
54388;SDS011;40975;50.390;8.640;2023-06-10T09:48:22;4.05;;;3.55;;
54388;SDS011;40975;50.390;8.640;2023-06-10T09:50:48;5.28;;;4.28;;
54388;SDS011;40975;50.390;8.640;2023-06-10T09:53:14;4.10;;;3.80;;
54388;SDS011;40975;50.390;8.640;2023-06-10T09:55:40;5.78;;;3.95;;
54388;SDS011;40975;50.390;8.640;2023-06-10T09:58:06;3.80;;;3.50;;
54388;SDS011;40975;50.390;8.640;2023-06-10T10:00:32;4.05;;;3.67;;
54388;SDS011;40975;50.390;8.640;2023-06-10T10:02:58;3.95;;;3.55;;
54388;SDS011;40975;50.390;8.640;2023-06-10T10:05:24;3.58;;;3.28;;
54388;SDS011;40975;50.390;8.640;2023-06-10T10:07:49;4.15;;;3.58;;
54388;SDS011;40975;50.390;8.640;2023-06-10T10:10:16;3.90;;;3.60;;
54388;SDS011;40975;50.390;8.640;2023-06-10T10:12:42;4.95;;;3.72;;
54388;SDS011;40975;50.390;8.640;2023-06-10T10:15:09;3.90;;;3.53;;
54388;SDS011;40975;50.390;8.640;2023-06-10T10:20:31;4.05;;;3.60;;
54388;SDS011;40975;50.390;8.640;2023-06-10T10:22:58;5.30;;;3.55;;
54388;SDS011;40975;50.390;8.640;2023-06-10T10:25:32;3.78;;;3.20;;
54388;SDS011;40975;50.390;8.640;2023-06-10T10:28:08;4.32;;;3.65;;
54388;SDS011;40975;50.390;8.640;2023-06-10T10:30:39;4.13;;;3.53;;
54388;SDS011;40975;50.390;8.640;2023-06-10T10:33:12;6.00;;;3.40;;
54388;SDS011;40975;50.390;8.640;2023-06-10T10:35:41;5.10;;;3.35;;
54388;SDS011;40975;50.390;8.640;2023-06-10T10:38:06;4.35;;;3.67;;
54388;SDS011;40975;50.390;8.640;2023-06-10T10:40:33;3.83;;;3.40;;
54388;SDS011;40975;50.390;8.640;2023-06-10T10:42:58;4.20;;;3.00;;
54388;SDS011;40975;50.390;8.640;2023-06-10T10:45:24;4.15;;;3.35;;
54388;SDS011;40975;50.390;8.640;2023-06-10T10:47:53;4.22;;;3.30;;
54388;SDS011;40975;50.390;8.640;2023-06-10T10:50:20;4.75;;;3.28;;
54388;SDS011;40975;50.390;8.640;2023-06-10T10:52:55;4.88;;;2.80;;
54388;SDS011;40975;50.390;8.640;2023-06-10T10:55:24;4.10;;;2.70;;
54388;SDS011;40975;50.390;8.640;2023-06-10T10:58:02;3.30;;;2.67;;
54388;SDS011;40975;50.390;8.640;2023-06-10T11:00:30;3.13;;;2.55;;
54388;SDS011;40975;50.390;8.640;2023-06-10T11:02:57;4.05;;;2.70;;
54388;SDS011;40975;50.390;8.640;2023-06-10T11:05:43;3.50;;;2.65;;
54388;SDS011;40975;50.390;8.640;2023-06-10T11:08:13;3.03;;;2.72;;
54388;SDS011;40975;50.390;8.640;2023-06-10T11:10:50;3.30;;;2.60;;
54388;SDS011;40975;50.390;8.640;2023-06-10T11:13:20;3.80;;;2.90;;
54388;SDS011;40975;50.390;8.640;2023-06-10T11:15:47;3.35;;;2.97;;
54388;SDS011;40975;50.390;8.640;2023-06-10T11:23:29;6.07;;;3.03;;
54388;SDS011;40975;50.390;8.640;2023-06-10T11:31:26;4.43;;;2.77;;
54388;SDS011;40975;50.390;8.640;2023-06-10T11:33:53;4.80;;;2.97;;
54388;SDS011;40975;50.390;8.640;2023-06-10T11:36:22;2.65;;;2.45;;
54388;SDS011;40975;50.390;8.640;2023-06-10T11:38:49;6.05;;;2.83;;
54388;SDS011;40975;50.390;8.640;2023-06-10T11:41:18;6.53;;;3.20;;
54388;SDS011;40975;50.390;8.640;2023-06-10T11:43:44;3.13;;;2.58;;
54388;SDS011;40975;50.390;8.640;2023-06-10T11:46:11;6.03;;;2.58;;
54388;SDS011;40975;50.390;8.640;2023-06-10T11:48:37;2.90;;;2.58;;
54388;SDS011;40975;50.390;8.640;2023-06-10T11:51:06;3.67;;;2.78;;
54388;SDS011;40975;50.390;8.640;2023-06-10T11:53:32;4.15;;;2.97;;
54388;SDS011;40975;50.390;8.640;2023-06-10T11:55:57;2.92;;;2.65;;
54388;SDS011;40975;50.390;8.640;2023-06-10T11:58:23;2.83;;;2.40;;
54388;SDS011;40975;50.390;8.640;2023-06-10T12:03:15;3.25;;;2.65;;
54388;SDS011;40975;50.390;8.640;2023-06-10T12:05:54;4.43;;;2.83;;
54388;SDS011;40975;50.390;8.640;2023-06-10T12:08:26;6.25;;;3.38;;
54388;SDS011;40975;50.390;8.640;2023-06-10T12:10:52;3.88;;;2.85;;
54388;SDS011;40975;50.390;8.640;2023-06-10T12:13:18;2.88;;;2.63;;
54388;SDS011;40975;50.390;8.640;2023-06-10T12:15:44;4.85;;;2.78;;
54388;SDS011;40975;50.390;8.640;2023-06-10T12:18:19;4.75;;;3.05;;
54388;SDS011;40975;50.390;8.640;2023-06-10T12:20:46;4.03;;;2.67;;
54388;SDS011;40975;50.390;8.640;2023-06-10T12:23:13;3.08;;;2.78;;
54388;SDS011;40975;50.390;8.640;2023-06-10T12:25:43;3.78;;;2.88;;
54388;SDS011;40975;50.390;8.640;2023-06-10T12:28:25;4.80;;;2.90;;
54388;SDS011;40975;50.390;8.640;2023-06-10T12:30:51;3.72;;;2.90;;
54388;SDS011;40975;50.390;8.640;2023-06-10T12:33:32;3.58;;;3.28;;
54388;SDS011;40975;50.390;8.640;2023-06-10T12:35:58;6.05;;;3.10;;
54388;SDS011;40975;50.390;8.640;2023-06-10T12:38:24;3.58;;;3.28;;
54388;SDS011;40975;50.390;8.640;2023-06-10T12:40:52;4.97;;;3.47;;
54388;SDS011;40975;50.390;8.640;2023-06-10T12:43:20;4.18;;;3.38;;
54388;SDS011;40975;50.390;8.640;2023-06-10T12:45:47;3.63;;;3.20;;
54388;SDS011;40975;50.390;8.640;2023-06-10T12:48:22;3.67;;;2.97;;
54388;SDS011;40975;50.390;8.640;2023-06-10T12:50:53;3.40;;;3.10;;
54388;SDS011;40975;50.390;8.640;2023-06-10T12:55:45;3.75;;;3.35;;
54388;SDS011;40975;50.390;8.640;2023-06-10T12:58:11;4.97;;;3.30;;
54388;SDS011;40975;50.390;8.640;2023-06-10T13:00:37;3.47;;;3.17;;
54388;SDS011;40975;50.390;8.640;2023-06-10T13:03:03;5.25;;;3.13;;
54388;SDS011;40975;50.390;8.640;2023-06-10T13:05:30;4.68;;;3.60;;
54388;SDS011;40975;50.390;8.640;2023-06-10T13:07:56;4.05;;;3.05;;
54388;SDS011;40975;50.390;8.640;2023-06-10T13:10:22;3.53;;;3.08;;
54388;SDS011;40975;50.390;8.640;2023-06-10T13:12:48;6.13;;;3.63;;
54388;SDS011;40975;50.390;8.640;2023-06-10T13:15:14;3.42;;;3.10;;
54388;SDS011;40975;50.390;8.640;2023-06-10T13:17:40;4.30;;;2.95;;
54388;SDS011;40975;50.390;8.640;2023-06-10T13:20:06;3.55;;;3.25;;
54388;SDS011;40975;50.390;8.640;2023-06-10T13:22:33;4.13;;;3.30;;
54388;SDS011;40975;50.390;8.640;2023-06-10T13:25:02;4.25;;;3.35;;
54388;SDS011;40975;50.390;8.640;2023-06-10T13:27:28;4.95;;;3.10;;
54388;SDS011;40975;50.390;8.640;2023-06-10T13:29:53;4.55;;;3.00;;
54388;SDS011;40975;50.390;8.640;2023-06-10T13:32:19;4.93;;;3.47;;
54388;SDS011;40975;50.390;8.640;2023-06-10T13:34:44;11.63;;;3.30;;
54388;SDS011;40975;50.390;8.640;2023-06-10T13:37:10;5.00;;;3.20;;
54388;SDS011;40975;50.390;8.640;2023-06-10T13:39:37;4.53;;;3.35;;
54388;SDS011;40975;50.390;8.640;2023-06-10T13:42:03;3.10;;;2.80;;
54388;SDS011;40975;50.390;8.640;2023-06-10T13:44:28;3.30;;;2.95;;
54388;SDS011;40975;50.390;8.640;2023-06-10T13:46:56;3.05;;;2.60;;
54388;SDS011;40975;50.390;8.640;2023-06-10T13:49:21;3.85;;;3.13;;
54388;SDS011;40975;50.390;8.640;2023-06-10T13:51:47;3.53;;;2.90;;
54388;SDS011;40975;50.390;8.640;2023-06-10T13:54:12;3.20;;;2.90;;
54388;SDS011;40975;50.390;8.640;2023-06-10T13:56:40;4.07;;;3.15;;
54388;SDS011;40975;50.390;8.640;2023-06-10T13:59:05;4.82;;;3.22;;
54388;SDS011;40975;50.390;8.640;2023-06-10T14:01:31;3.22;;;2.92;;
54388;SDS011;40975;50.390;8.640;2023-06-10T14:03:56;4.55;;;3.20;;
54388;SDS011;40975;50.390;8.640;2023-06-10T14:06:21;3.58;;;3.20;;
54388;SDS011;40975;50.390;8.640;2023-06-10T14:08:47;4.22;;;3.05;;
54388;SDS011;40975;50.390;8.640;2023-06-10T14:11:12;5.45;;;3.50;;
54388;SDS011;40975;50.390;8.640;2023-06-10T14:13:38;3.90;;;3.20;;
54388;SDS011;40975;50.390;8.640;2023-06-10T14:16:04;3.22;;;2.90;;
54388;SDS011;40975;50.390;8.640;2023-06-10T14:18:29;3.95;;;3.15;;
54388;SDS011;40975;50.390;8.640;2023-06-10T14:20:55;3.78;;;3.10;;
54388;SDS011;40975;50.390;8.640;2023-06-10T14:23:20;3.00;;;2.80;;
54388;SDS011;40975;50.390;8.640;2023-06-10T14:25:45;4.75;;;3.15;;
54388;SDS011;40975;50.390;8.640;2023-06-10T14:28:11;3.22;;;2.80;;
54388;SDS011;40975;50.390;8.640;2023-06-10T14:30:36;4.13;;;3.40;;
54388;SDS011;40975;50.390;8.640;2023-06-10T14:33:01;4.18;;;3.03;;
54388;SDS011;40975;50.390;8.640;2023-06-10T14:35:27;3.45;;;2.78;;
54388;SDS011;40975;50.390;8.640;2023-06-10T14:37:52;5.15;;;3.13;;
54388;SDS011;40975;50.390;8.640;2023-06-10T14:40:17;4.80;;;3.13;;
54388;SDS011;40975;50.390;8.640;2023-06-10T14:42:43;3.60;;;2.85;;
54388;SDS011;40975;50.390;8.640;2023-06-10T14:45:08;3.47;;;3.10;;
54388;SDS011;40975;50.390;8.640;2023-06-10T14:47:35;3.88;;;3.03;;
54388;SDS011;40975;50.390;8.640;2023-06-10T14:50:00;3.28;;;2.97;;
54388;SDS011;40975;50.390;8.640;2023-06-10T14:52:25;3.72;;;3.13;;
54388;SDS011;40975;50.390;8.640;2023-06-10T14:54:51;3.65;;;3.35;;
54388;SDS011;40975;50.390;8.640;2023-06-10T14:57:16;4.60;;;3.22;;
54388;SDS011;40975;50.390;8.640;2023-06-10T14:59:42;3.85;;;2.90;;
54388;SDS011;40975;50.390;8.640;2023-06-10T15:02:07;3.25;;;2.95;;
54388;SDS011;40975;50.390;8.640;2023-06-10T15:04:32;6.78;;;3.05;;
54388;SDS011;40975;50.390;8.640;2023-06-10T15:06:58;3.85;;;3.28;;